sensor_id;sensor_type;location;lat;lon;timestamp;P1;durP1;ratioP1;P2;durP2;ratioP2
68353;SDS011;55274;43.060;25.618;2022-07-31T00:00:42;3.45;;;2.67;;
68353;SDS011;55274;43.060;25.618;2022-07-31T00:03:10;7.65;;;3.42;;
68353;SDS011;55274;43.060;25.618;2022-07-31T00:05:36;5.00;;;2.90;;
68353;SDS011;55274;43.060;25.618;2022-07-31T00:08:02;5.00;;;3.33;;
68353;SDS011;55274;43.060;25.618;2022-07-31T00:10:28;3.92;;;3.00;;
68353;SDS011;55274;43.060;25.618;2022-07-31T00:12:54;5.93;;;3.63;;
68353;SDS011;55274;43.060;25.618;2022-07-31T00:15:20;5.90;;;4.10;;
68353;SDS011;55274;43.060;25.618;2022-07-31T00:17:46;6.72;;;4.32;;
68353;SDS011;55274;43.060;25.618;2022-07-31T00:20:13;10.68;;;4.13;;
68353;SDS011;55274;43.060;25.618;2022-07-31T00:22:44;9.88;;;4.60;;
68353;SDS011;55274;43.060;25.618;2022-07-31T00:25:11;6.90;;;4.35;;
68353;SDS011;55274;43.060;25.618;2022-07-31T00:27:38;5.57;;;3.75;;
68353;SDS011;55274;43.060;25.618;2022-07-31T00:30:06;6.05;;;3.53;;
68353;SDS011;55274;43.060;25.618;2022-07-31T00:32:32;7.60;;;3.97;;
68353;SDS011;55274;43.060;25.618;2022-07-31T00:34:58;7.70;;;3.47;;
68353;SDS011;55274;43.060;25.618;2022-07-31T00:37:23;5.50;;;3.00;;
68353;SDS011;55274;43.060;25.618;2022-07-31T00:39:49;6.50;;;3.28;;
68353;SDS011;55274;43.060;25.618;2022-07-31T00:42:18;9.23;;;3.50;;
68353;SDS011;55274;43.060;25.618;2022-07-31T00:44:46;12.18;;;7.55;;
68353;SDS011;55274;43.060;25.618;2022-07-31T00:47:13;8.30;;;5.00;;
68353;SDS011;55274;43.060;25.618;2022-07-31T00:49:39;10.15;;;5.28;;
68353;SDS011;55274;43.060;25.618;2022-07-31T00:52:05;9.60;;;4.80;;
68353;SDS011;55274;43.060;25.618;2022-07-31T00:54:32;6.43;;;3.88;;
68353;SDS011;55274;43.060;25.618;2022-07-31T00:56:58;7.70;;;4.47;;
68353;SDS011;55274;43.060;25.618;2022-07-31T00:59:24;8.95;;;4.43;;
68353;SDS011;55274;43.060;25.618;2022-07-31T01:01:51;8.30;;;4.40;;
68353;SDS011;55274;43.060;25.618;2022-07-31T01:04:16;5.80;;;4.10;;
68353;SDS011;55274;43.060;25.618;2022-07-31T01:06:43;5.32;;;4.00;;
68353;SDS011;55274;43.060;25.618;2022-07-31T01:09:09;7.55;;;4.00;;
68353;SDS011;55274;43.060;25.618;2022-07-31T01:14:20;5.55;;;3.97;;
68353;SDS011;55274;43.060;25.618;2022-07-31T01:16:52;7.53;;;4.40;;
68353;SDS011;55274;43.060;25.618;2022-07-31T01:28:05;9.95;;;5.50;;
68353;SDS011;55274;43.060;25.618;2022-07-31T01:30:18;8.98;;;5.38;;
68353;SDS011;55274;43.060;25.618;2022-07-31T01:32:48;8.38;;;5.57;;
68353;SDS011;55274;43.060;25.618;2022-07-31T01:40:53;6.95;;;4.90;;
68353;SDS011;55274;43.060;25.618;2022-07-31T01:43:39;7.65;;;4.97;;
68353;SDS011;55274;43.060;25.618;2022-07-31T01:46:08;11.25;;;5.07;;
68353;SDS011;55274;43.060;25.618;2022-07-31T01:48:36;7.03;;;5.22;;
68353;SDS011;55274;43.060;25.618;2022-07-31T01:51:04;11.98;;;5.47;;
68353;SDS011;55274;43.060;25.618;2022-07-31T01:53:33;9.60;;;5.30;;
68353;SDS011;55274;43.060;25.618;2022-07-31T01:56:00;6.32;;;5.10;;
68353;SDS011;55274;43.060;25.618;2022-07-31T01:58:27;8.75;;;5.68;;
68353;SDS011;55274;43.060;25.618;2022-07-31T02:00:56;7.57;;;4.82;;
68353;SDS011;55274;43.060;25.618;2022-07-31T02:03:24;7.38;;;4.97;;
68353;SDS011;55274;43.060;25.618;2022-07-31T02:05:51;9.77;;;5.18;;
68353;SDS011;55274;43.060;25.618;2022-07-31T02:08:18;9.60;;;5.05;;
68353;SDS011;55274;43.060;25.618;2022-07-31T02:10:45;8.18;;;5.22;;
68353;SDS011;55274;43.060;25.618;2022-07-31T02:13:12;9.45;;;5.25;;
68353;SDS011;55274;43.060;25.618;2022-07-31T02:15:40;11.80;;;5.38;;
68353;SDS011;55274;43.060;25.618;2022-07-31T02:18:07;7.82;;;4.93;;
68353;SDS011;55274;43.060;25.618;2022-07-31T02:20:35;10.77;;;5.00;;
68353;SDS011;55274;43.060;25.618;2022-07-31T02:23:04;7.70;;;4.80;;
68353;SDS011;55274;43.060;25.618;2022-07-31T02:25:30;6.32;;;5.10;;
68353;SDS011;55274;43.060;25.618;2022-07-31T02:28:00;8.93;;;5.57;;
68353;SDS011;55274;43.060;25.618;2022-07-31T02:30:30;8.30;;;5.68;;
68353;SDS011;55274;43.060;25.618;2022-07-31T02:32:57;11.63;;;6.32;;
68353;SDS011;55274;43.060;25.618;2022-07-31T02:35:24;17.80;;;7.57;;
68353;SDS011;55274;43.060;25.618;2022-07-31T02:37:52;14.45;;;6.88;;
68353;SDS011;55274;43.060;25.618;2022-07-31T02:40:20;15.82;;;5.78;;
68353;SDS011;55274;43.060;25.618;2022-07-31T02:42:49;11.10;;;6.43;;
68353;SDS011;55274;43.060;25.618;2022-07-31T02:45:16;9.40;;;5.70;;
68353;SDS011;55274;43.060;25.618;2022-07-31T02:47:42;17.52;;;5.93;;
68353;SDS011;55274;43.060;25.618;2022-07-31T02:50:09;12.75;;;6.20;;
68353;SDS011;55274;43.060;25.618;2022-07-31T02:52:35;14.27;;;6.72;;
68353;SDS011;55274;43.060;25.618;2022-07-31T02:55:02;8.05;;;5.10;;
68353;SDS011;55274;43.060;25.618;2022-07-31T02:57:29;9.30;;;5.20;;
68353;SDS011;55274;43.060;25.618;2022-07-31T02:59:55;26.45;;;7.90;;
68353;SDS011;55274;43.060;25.618;2022-07-31T03:02:21;14.93;;;6.72;;
68353;SDS011;55274;43.060;25.618;2022-07-31T03:04:47;23.42;;;7.65;;
68353;SDS011;55274;43.060;25.618;2022-07-31T03:07:13;10.38;;;6.47;;
68353;SDS011;55274;43.060;25.618;2022-07-31T03:09:41;7.00;;;4.95;;
68353;SDS011;55274;43.060;25.618;2022-07-31T03:12:07;8.43;;;5.45;;
68353;SDS011;55274;43.060;25.618;2022-07-31T03:14:33;7.75;;;5.63;;
68353;SDS011;55274;43.060;25.618;2022-07-31T03:17:01;8.15;;;6.10;;
68353;SDS011;55274;43.060;25.618;2022-07-31T03:19:28;11.82;;;6.18;;
68353;SDS011;55274;43.060;25.618;2022-07-31T03:21:56;9.10;;;5.75;;
68353;SDS011;55274;43.060;25.618;2022-07-31T03:24:23;6.57;;;5.45;;
68353;SDS011;55274;43.060;25.618;2022-07-31T03:26:51;8.85;;;5.97;;
68353;SDS011;55274;43.060;25.618;2022-07-31T03:29:16;10.73;;;7.47;;
68353;SDS011;55274;43.060;25.618;2022-07-31T03:31:43;12.85;;;7.95;;
68353;SDS011;55274;43.060;25.618;2022-07-31T03:34:08;8.73;;;6.78;;
68353;SDS011;55274;43.060;25.618;2022-07-31T03:36:36;23.83;;;8.35;;
68353;SDS011;55274;43.060;25.618;2022-07-31T03:39:02;20.35;;;8.82;;
68353;SDS011;55274;43.060;25.618;2022-07-31T03:41:29;21.92;;;8.02;;
68353;SDS011;55274;43.060;25.618;2022-07-31T03:43:55;17.17;;;7.40;;
68353;SDS011;55274;43.060;25.618;2022-07-31T03:46:21;12.10;;;6.45;;
68353;SDS011;55274;43.060;25.618;2022-07-31T03:48:49;14.95;;;6.65;;
68353;SDS011;55274;43.060;25.618;2022-07-31T03:51:16;12.10;;;6.65;;
68353;SDS011;55274;43.060;25.618;2022-07-31T03:53:42;9.98;;;6.53;;
68353;SDS011;55274;43.060;25.618;2022-07-31T03:56:08;9.68;;;6.57;;
68353;SDS011;55274;43.060;25.618;2022-07-31T03:58:35;10.75;;;6.53;;
68353;SDS011;55274;43.060;25.618;2022-07-31T04:01:01;17.08;;;6.95;;
68353;SDS011;55274;43.060;25.618;2022-07-31T04:03:29;12.05;;;6.93;;
68353;SDS011;55274;43.060;25.618;2022-07-31T04:05:56;8.82;;;6.35;;
68353;SDS011;55274;43.060;25.618;2022-07-31T04:08:22;10.38;;;6.47;;
68353;SDS011;55274;43.060;25.618;2022-07-31T04:10:47;8.07;;;6.32;;
68353;SDS011;55274;43.060;25.618;2022-07-31T04:13:13;8.30;;;5.93;;
68353;SDS011;55274;43.060;25.618;2022-07-31T04:15:39;10.85;;;6.95;;
68353;SDS011;55274;43.060;25.618;2022-07-31T04:18:05;8.40;;;6.30;;
68353;SDS011;55274;43.060;25.618;2022-07-31T04:20:30;13.63;;;7.20;;
68353;SDS011;55274;43.060;25.618;2022-07-31T04:22:56;27.02;;;7.60;;
68353;SDS011;55274;43.060;25.618;2022-07-31T04:25:22;21.58;;;8.32;;
68353;SDS011;55274;43.060;25.618;2022-07-31T04:27:48;27.73;;;8.52;;
68353;SDS011;55274;43.060;25.618;2022-07-31T04:30:14;25.80;;;9.63;;
68353;SDS011;55274;43.060;25.618;2022-07-31T04:32:39;18.67;;;7.53;;
68353;SDS011;55274;43.060;25.618;2022-07-31T04:35:05;14.10;;;6.82;;
68353;SDS011;55274;43.060;25.618;2022-07-31T04:37:32;31.98;;;8.55;;
68353;SDS011;55274;43.060;25.618;2022-07-31T04:39:58;28.27;;;6.85;;
68353;SDS011;55274;43.060;25.618;2022-07-31T04:42:23;13.93;;;5.70;;
68353;SDS011;55274;43.060;25.618;2022-07-31T04:44:49;28.70;;;8.52;;
68353;SDS011;55274;43.060;25.618;2022-07-31T04:47:16;11.60;;;7.43;;
68353;SDS011;55274;43.060;25.618;2022-07-31T04:49:41;10.25;;;5.85;;
68353;SDS011;55274;43.060;25.618;2022-07-31T04:52:07;17.75;;;7.63;;
68353;SDS011;55274;43.060;25.618;2022-07-31T04:54:33;13.57;;;8.13;;
68353;SDS011;55274;43.060;25.618;2022-07-31T04:56:59;13.35;;;6.97;;
68353;SDS011;55274;43.060;25.618;2022-07-31T04:59:25;15.15;;;8.20;;
68353;SDS011;55274;43.060;25.618;2022-07-31T05:01:50;12.20;;;7.68;;
68353;SDS011;55274;43.060;25.618;2022-07-31T05:04:17;15.63;;;7.68;;
68353;SDS011;55274;43.060;25.618;2022-07-31T05:06:46;12.88;;;7.30;;
68353;SDS011;55274;43.060;25.618;2022-07-31T05:09:16;42.72;;;8.70;;
68353;SDS011;55274;43.060;25.618;2022-07-31T05:11:43;52.08;;;9.90;;
68353;SDS011;55274;43.060;25.618;2022-07-31T05:14:10;18.60;;;6.90;;
68353;SDS011;55274;43.060;25.618;2022-07-31T05:16:37;14.80;;;6.30;;
68353;SDS011;55274;43.060;25.618;2022-07-31T05:19:04;11.65;;;6.20;;
68353;SDS011;55274;43.060;25.618;2022-07-31T05:21:30;8.15;;;5.43;;
68353;SDS011;55274;43.060;25.618;2022-07-31T05:23:57;15.98;;;7.70;;
68353;SDS011;55274;43.060;25.618;2022-07-31T05:26:24;11.52;;;6.70;;
68353;SDS011;55274;43.060;25.618;2022-07-31T05:28:52;16.10;;;6.45;;
68353;SDS011;55274;43.060;25.618;2022-07-31T05:31:20;10.27;;;6.55;;
68353;SDS011;55274;43.060;25.618;2022-07-31T05:33:47;13.55;;;6.55;;
68353;SDS011;55274;43.060;25.618;2022-07-31T05:36:14;17.00;;;7.13;;
68353;SDS011;55274;43.060;25.618;2022-07-31T05:38:40;13.57;;;6.70;;
68353;SDS011;55274;43.060;25.618;2022-07-31T05:41:06;10.43;;;6.05;;
68353;SDS011;55274;43.060;25.618;2022-07-31T05:43:32;21.10;;;6.85;;
68353;SDS011;55274;43.060;25.618;2022-07-31T05:45:58;23.73;;;6.95;;
68353;SDS011;55274;43.060;25.618;2022-07-31T05:48:24;49.63;;;8.70;;
68353;SDS011;55274;43.060;25.618;2022-07-31T05:50:50;20.25;;;5.85;;
68353;SDS011;55274;43.060;25.618;2022-07-31T05:53:17;11.40;;;4.78;;
68353;SDS011;55274;43.060;25.618;2022-07-31T05:55:45;11.02;;;5.50;;
68353;SDS011;55274;43.060;25.618;2022-07-31T05:58:12;12.05;;;5.15;;
68353;SDS011;55274;43.060;25.618;2022-07-31T06:00:39;8.30;;;4.07;;
68353;SDS011;55274;43.060;25.618;2022-07-31T06:03:06;9.25;;;4.13;;
68353;SDS011;55274;43.060;25.618;2022-07-31T06:05:32;5.53;;;4.18;;
68353;SDS011;55274;43.060;25.618;2022-07-31T06:07:58;11.95;;;3.97;;
68353;SDS011;55274;43.060;25.618;2022-07-31T06:10:25;4.93;;;4.15;;
68353;SDS011;55274;43.060;25.618;2022-07-31T06:12:52;8.90;;;4.07;;
68353;SDS011;55274;43.060;25.618;2022-07-31T06:15:18;6.18;;;3.60;;
68353;SDS011;55274;43.060;25.618;2022-07-31T06:17:44;9.02;;;5.30;;
68353;SDS011;55274;43.060;25.618;2022-07-31T06:20:11;3.67;;;3.22;;
68353;SDS011;55274;43.060;25.618;2022-07-31T06:22:38;6.07;;;4.10;;
68353;SDS011;55274;43.060;25.618;2022-07-31T06:25:05;5.18;;;3.55;;
68353;SDS011;55274;43.060;25.618;2022-07-31T06:27:32;9.85;;;5.53;;
68353;SDS011;55274;43.060;25.618;2022-07-31T06:29:58;7.10;;;4.32;;
68353;SDS011;55274;43.060;25.618;2022-07-31T06:32:24;5.22;;;3.70;;
68353;SDS011;55274;43.060;25.618;2022-07-31T06:34:50;5.47;;;3.53;;
68353;SDS011;55274;43.060;25.618;2022-07-31T06:37:16;9.40;;;6.68;;
68353;SDS011;55274;43.060;25.618;2022-07-31T06:39:42;4.45;;;3.50;;
68353;SDS011;55274;43.060;25.618;2022-07-31T06:42:07;6.93;;;5.18;;
68353;SDS011;55274;43.060;25.618;2022-07-31T06:44:33;9.32;;;5.13;;
68353;SDS011;55274;43.060;25.618;2022-07-31T06:46:59;4.57;;;3.90;;
68353;SDS011;55274;43.060;25.618;2022-07-31T06:49:25;6.72;;;4.45;;
68353;SDS011;55274;43.060;25.618;2022-07-31T06:51:51;6.63;;;3.80;;
68353;SDS011;55274;43.060;25.618;2022-07-31T06:54:17;6.28;;;3.72;;
68353;SDS011;55274;43.060;25.618;2022-07-31T06:56:43;8.82;;;4.88;;
68353;SDS011;55274;43.060;25.618;2022-07-31T06:59:09;5.35;;;3.88;;
68353;SDS011;55274;43.060;25.618;2022-07-31T07:01:34;5.15;;;3.30;;
68353;SDS011;55274;43.060;25.618;2022-07-31T07:04:00;4.65;;;3.30;;
68353;SDS011;55274;43.060;25.618;2022-07-31T07:06:27;9.65;;;6.22;;
68353;SDS011;55274;43.060;25.618;2022-07-31T07:08:53;7.13;;;3.78;;
68353;SDS011;55274;43.060;25.618;2022-07-31T07:11:19;7.03;;;3.60;;
68353;SDS011;55274;43.060;25.618;2022-07-31T07:13:45;5.03;;;2.72;;
68353;SDS011;55274;43.060;25.618;2022-07-31T07:16:11;3.95;;;2.63;;
68353;SDS011;55274;43.060;25.618;2022-07-31T07:18:38;4.70;;;2.88;;
68353;SDS011;55274;43.060;25.618;2022-07-31T07:21:03;11.02;;;6.65;;
68353;SDS011;55274;43.060;25.618;2022-07-31T07:23:29;8.05;;;4.40;;
68353;SDS011;55274;43.060;25.618;2022-07-31T07:25:56;8.95;;;5.88;;
68353;SDS011;55274;43.060;25.618;2022-07-31T07:28:22;13.23;;;8.27;;
68353;SDS011;55274;43.060;25.618;2022-07-31T07:30:48;4.90;;;4.03;;
68353;SDS011;55274;43.060;25.618;2022-07-31T07:33:13;15.00;;;8.68;;
68353;SDS011;55274;43.060;25.618;2022-07-31T07:35:39;7.07;;;4.47;;
68353;SDS011;55274;43.060;25.618;2022-07-31T07:38:05;5.20;;;3.92;;
68353;SDS011;55274;43.060;25.618;2022-07-31T07:40:31;8.02;;;5.30;;
68353;SDS011;55274;43.060;25.618;2022-07-31T07:42:57;4.93;;;4.40;;
68353;SDS011;55274;43.060;25.618;2022-07-31T07:45:23;3.72;;;3.10;;
68353;SDS011;55274;43.060;25.618;2022-07-31T07:47:49;5.20;;;3.92;;
68353;SDS011;55274;43.060;25.618;2022-07-31T07:50:15;10.48;;;4.13;;
68353;SDS011;55274;43.060;25.618;2022-07-31T07:52:41;7.55;;;4.93;;
68353;SDS011;55274;43.060;25.618;2022-07-31T07:55:07;8.57;;;4.15;;
68353;SDS011;55274;43.060;25.618;2022-07-31T07:57:33;9.13;;;5.13;;
68353;SDS011;55274;43.060;25.618;2022-07-31T08:00:04;10.98;;;4.05;;
68353;SDS011;55274;43.060;25.618;2022-07-31T08:02:32;7.82;;;3.50;;
68353;SDS011;55274;43.060;25.618;2022-07-31T08:04:58;12.63;;;3.80;;
68353;SDS011;55274;43.060;25.618;2022-07-31T08:07:28;4.25;;;3.40;;
68353;SDS011;55274;43.060;25.618;2022-07-31T08:09:56;8.65;;;4.05;;
68353;SDS011;55274;43.060;25.618;2022-07-31T08:12:22;6.85;;;3.85;;
68353;SDS011;55274;43.060;25.618;2022-07-31T08:14:48;6.35;;;4.20;;
68353;SDS011;55274;43.060;25.618;2022-07-31T08:17:14;6.32;;;3.97;;
68353;SDS011;55274;43.060;25.618;2022-07-31T08:19:40;4.57;;;3.67;;
68353;SDS011;55274;43.060;25.618;2022-07-31T08:22:06;9.15;;;4.07;;
68353;SDS011;55274;43.060;25.618;2022-07-31T08:24:32;6.38;;;3.90;;
68353;SDS011;55274;43.060;25.618;2022-07-31T08:26:58;6.20;;;4.47;;
68353;SDS011;55274;43.060;25.618;2022-07-31T08:29:43;5.65;;;4.70;;
68353;SDS011;55274;43.060;25.618;2022-07-31T08:32:09;5.60;;;4.72;;
68353;SDS011;55274;43.060;25.618;2022-07-31T08:34:35;7.18;;;5.28;;
68353;SDS011;55274;43.060;25.618;2022-07-31T08:37:02;6.85;;;5.78;;
68353;SDS011;55274;43.060;25.618;2022-07-31T08:39:30;7.50;;;5.90;;
68353;SDS011;55274;43.060;25.618;2022-07-31T08:42:02;9.63;;;5.80;;
68353;SDS011;55274;43.060;25.618;2022-07-31T08:44:36;7.38;;;5.03;;
68353;SDS011;55274;43.060;25.618;2022-07-31T08:47:06;8.90;;;6.82;;
68353;SDS011;55274;43.060;25.618;2022-07-31T08:49:36;16.73;;;11.15;;
68353;SDS011;55274;43.060;25.618;2022-07-31T08:52:07;12.52;;;8.02;;
68353;SDS011;55274;43.060;25.618;2022-07-31T08:54:34;9.88;;;7.10;;
68353;SDS011;55274;43.060;25.618;2022-07-31T08:57:01;10.35;;;7.13;;
68353;SDS011;55274;43.060;25.618;2022-07-31T08:59:27;8.77;;;7.32;;
68353;SDS011;55274;43.060;25.618;2022-07-31T09:01:53;9.77;;;7.90;;
68353;SDS011;55274;43.060;25.618;2022-07-31T09:04:24;10.98;;;7.78;;
68353;SDS011;55274;43.060;25.618;2022-07-31T09:06:50;9.50;;;7.65;;
68353;SDS011;55274;43.060;25.618;2022-07-31T09:09:16;17.10;;;8.77;;
68353;SDS011;55274;43.060;25.618;2022-07-31T09:11:49;10.63;;;7.88;;
68353;SDS011;55274;43.060;25.618;2022-07-31T09:14:31;12.27;;;8.38;;
68353;SDS011;55274;43.060;25.618;2022-07-31T09:17:01;12.30;;;9.30;;
68353;SDS011;55274;43.060;25.618;2022-07-31T09:19:38;15.73;;;11.95;;
68353;SDS011;55274;43.060;25.618;2022-07-31T09:22:05;12.95;;;8.35;;
68353;SDS011;55274;43.060;25.618;2022-07-31T09:24:33;26.52;;;9.45;;
68353;SDS011;55274;43.060;25.618;2022-07-31T09:27:07;11.80;;;8.85;;
68353;SDS011;55274;43.060;25.618;2022-07-31T09:29:38;9.93;;;8.93;;
68353;SDS011;55274;43.060;25.618;2022-07-31T09:32:06;12.88;;;8.50;;
68353;SDS011;55274;43.060;25.618;2022-07-31T09:34:36;10.25;;;8.38;;
68353;SDS011;55274;43.060;25.618;2022-07-31T09:39:47;11.18;;;8.77;;
68353;SDS011;55274;43.060;25.618;2022-07-31T09:42:17;8.73;;;7.70;;
68353;SDS011;55274;43.060;25.618;2022-07-31T09:44:44;9.77;;;8.10;;
68353;SDS011;55274;43.060;25.618;2022-07-31T09:47:45;9.35;;;8.35;;
68353;SDS011;55274;43.060;25.618;2022-07-31T09:50:04;14.63;;;10.30;;
68353;SDS011;55274;43.060;25.618;2022-07-31T09:52:31;12.63;;;9.75;;
68353;SDS011;55274;43.060;25.618;2022-07-31T09:55:00;13.05;;;9.20;;
68353;SDS011;55274;43.060;25.618;2022-07-31T09:57:28;10.32;;;8.60;;
68353;SDS011;55274;43.060;25.618;2022-07-31T09:59:54;9.57;;;8.57;;
68353;SDS011;55274;43.060;25.618;2022-07-31T10:02:20;12.32;;;8.15;;
68353;SDS011;55274;43.060;25.618;2022-07-31T10:04:52;9.88;;;8.15;;
68353;SDS011;55274;43.060;25.618;2022-07-31T10:07:19;8.70;;;7.80;;
68353;SDS011;55274;43.060;25.618;2022-07-31T10:09:51;10.65;;;8.73;;
68353;SDS011;55274;43.060;25.618;2022-07-31T10:12:21;9.65;;;8.43;;
68353;SDS011;55274;43.060;25.618;2022-07-31T10:14:49;13.75;;;8.98;;
68353;SDS011;55274;43.060;25.618;2022-07-31T10:17:23;12.77;;;10.10;;
68353;SDS011;55274;43.060;25.618;2022-07-31T10:19:57;21.17;;;9.93;;
68353;SDS011;55274;43.060;25.618;2022-07-31T10:22:29;11.95;;;9.15;;
68353;SDS011;55274;43.060;25.618;2022-07-31T10:24:59;9.82;;;8.50;;
68353;SDS011;55274;43.060;25.618;2022-07-31T10:27:26;11.00;;;9.02;;
68353;SDS011;55274;43.060;25.618;2022-07-31T10:29:54;9.85;;;8.68;;
68353;SDS011;55274;43.060;25.618;2022-07-31T10:32:21;11.00;;;8.40;;
68353;SDS011;55274;43.060;25.618;2022-07-31T10:34:47;10.48;;;8.85;;
68353;SDS011;55274;43.060;25.618;2022-07-31T10:37:18;10.25;;;9.00;;
68353;SDS011;55274;43.060;25.618;2022-07-31T10:40:07;16.33;;;11.88;;
68353;SDS011;55274;43.060;25.618;2022-07-31T10:45:09;14.65;;;9.13;;
68353;SDS011;55274;43.060;25.618;2022-07-31T10:47:38;10.30;;;8.73;;
68353;SDS011;55274;43.060;25.618;2022-07-31T10:50:05;11.70;;;8.73;;
68353;SDS011;55274;43.060;25.618;2022-07-31T10:52:35;9.48;;;8.23;;
68353;SDS011;55274;43.060;25.618;2022-07-31T10:55:23;8.77;;;7.18;;
68353;SDS011;55274;43.060;25.618;2022-07-31T10:57:51;15.65;;;10.88;;
68353;SDS011;55274;43.060;25.618;2022-07-31T11:00:18;8.48;;;7.32;;
68353;SDS011;55274;43.060;25.618;2022-07-31T11:02:45;8.77;;;7.55;;
68353;SDS011;55274;43.060;25.618;2022-07-31T11:05:13;8.85;;;7.82;;
68353;SDS011;55274;43.060;25.618;2022-07-31T11:07:57;16.23;;;11.90;;
68353;SDS011;55274;43.060;25.618;2022-07-31T11:10:24;6.68;;;5.82;;
68353;SDS011;55274;43.060;25.618;2022-07-31T11:13:06;9.07;;;6.28;;
68353;SDS011;55274;43.060;25.618;2022-07-31T11:15:35;8.35;;;6.50;;
68353;SDS011;55274;43.060;25.618;2022-07-31T11:18:10;7.25;;;6.22;;
68353;SDS011;55274;43.060;25.618;2022-07-31T11:20:36;11.65;;;7.45;;
68353;SDS011;55274;43.060;25.618;2022-07-31T11:23:03;13.52;;;6.32;;
68353;SDS011;55274;43.060;25.618;2022-07-31T11:25:36;15.10;;;9.75;;
68353;SDS011;55274;43.060;25.618;2022-07-31T11:28:15;8.10;;;5.80;;
68353;SDS011;55274;43.060;25.618;2022-07-31T11:30:49;8.35;;;6.68;;
68353;SDS011;55274;43.060;25.618;2022-07-31T11:38:43;7.30;;;4.90;;
68353;SDS011;55274;43.060;25.618;2022-07-31T11:41:10;12.45;;;5.57;;
68353;SDS011;55274;43.060;25.618;2022-07-31T11:43:41;8.20;;;5.50;;
68353;SDS011;55274;43.060;25.618;2022-07-31T11:46:08;8.57;;;6.38;;
68353;SDS011;55274;43.060;25.618;2022-07-31T11:48:36;10.85;;;5.60;;
68353;SDS011;55274;43.060;25.618;2022-07-31T11:51:03;5.63;;;4.93;;
68353;SDS011;55274;43.060;25.618;2022-07-31T11:53:29;9.23;;;5.88;;
68353;SDS011;55274;43.060;25.618;2022-07-31T11:55:58;6.47;;;5.38;;
68353;SDS011;55274;43.060;25.618;2022-07-31T11:58:28;14.27;;;8.77;;
68353;SDS011;55274;43.060;25.618;2022-07-31T12:00:55;15.98;;;6.00;;
68353;SDS011;55274;43.060;25.618;2022-07-31T12:03:24;31.60;;;8.88;;
68353;SDS011;55274;43.060;25.618;2022-07-31T12:05:53;8.43;;;5.97;;
68353;SDS011;55274;43.060;25.618;2022-07-31T12:08:19;10.07;;;5.70;;
68353;SDS011;55274;43.060;25.618;2022-07-31T12:10:46;7.55;;;5.38;;
68353;SDS011;55274;43.060;25.618;2022-07-31T12:13:14;6.20;;;5.05;;
68353;SDS011;55274;43.060;25.618;2022-07-31T12:15:54;9.63;;;5.63;;
68353;SDS011;55274;43.060;25.618;2022-07-31T12:18:22;9.13;;;6.72;;
68353;SDS011;55274;43.060;25.618;2022-07-31T12:20:58;28.13;;;10.93;;
68353;SDS011;55274;43.060;25.618;2022-07-31T12:23:26;8.73;;;5.82;;
68353;SDS011;55274;43.060;25.618;2022-07-31T12:26:07;28.45;;;11.70;;
68353;SDS011;55274;43.060;25.618;2022-07-31T12:28:36;9.23;;;5.90;;
68353;SDS011;55274;43.060;25.618;2022-07-31T12:31:02;7.45;;;5.60;;
68353;SDS011;55274;43.060;25.618;2022-07-31T12:33:33;6.43;;;5.43;;
68353;SDS011;55274;43.060;25.618;2022-07-31T12:36:11;11.85;;;6.28;;
68353;SDS011;55274;43.060;25.618;2022-07-31T12:38:38;7.95;;;6.30;;
68353;SDS011;55274;43.060;25.618;2022-07-31T12:41:04;11.13;;;6.18;;
68353;SDS011;55274;43.060;25.618;2022-07-31T12:43:30;9.52;;;5.68;;
68353;SDS011;55274;43.060;25.618;2022-07-31T12:45:57;6.00;;;5.30;;
68353;SDS011;55274;43.060;25.618;2022-07-31T12:48:26;9.15;;;6.50;;
68353;SDS011;55274;43.060;25.618;2022-07-31T12:50:53;9.40;;;6.47;;
68353;SDS011;55274;43.060;25.618;2022-07-31T12:53:18;7.47;;;5.68;;
68353;SDS011;55274;43.060;25.618;2022-07-31T12:55:44;9.00;;;6.90;;
68353;SDS011;55274;43.060;25.618;2022-07-31T12:58:10;9.85;;;6.05;;
68353;SDS011;55274;43.060;25.618;2022-07-31T13:00:36;9.35;;;6.70;;
68353;SDS011;55274;43.060;25.618;2022-07-31T13:03:02;5.88;;;5.05;;
68353;SDS011;55274;43.060;25.618;2022-07-31T13:05:28;5.32;;;4.78;;
68353;SDS011;55274;43.060;25.618;2022-07-31T13:07:53;6.80;;;5.55;;
68353;SDS011;55274;43.060;25.618;2022-07-31T13:10:19;19.10;;;5.68;;
68353;SDS011;55274;43.060;25.618;2022-07-31T13:12:45;5.82;;;4.53;;
68353;SDS011;55274;43.060;25.618;2022-07-31T13:15:14;8.38;;;5.25;;
68353;SDS011;55274;43.060;25.618;2022-07-31T13:17:41;6.00;;;3.88;;
68353;SDS011;55274;43.060;25.618;2022-07-31T13:20:08;6.72;;;5.13;;
68353;SDS011;55274;43.060;25.618;2022-07-31T13:22:34;6.35;;;4.82;;
68353;SDS011;55274;43.060;25.618;2022-07-31T13:25:00;6.90;;;4.68;;
68353;SDS011;55274;43.060;25.618;2022-07-31T13:27:25;5.28;;;4.15;;
68353;SDS011;55274;43.060;25.618;2022-07-31T13:29:51;5.38;;;4.32;;
68353;SDS011;55274;43.060;25.618;2022-07-31T13:32:17;5.95;;;4.68;;
68353;SDS011;55274;43.060;25.618;2022-07-31T13:34:43;10.90;;;4.25;;
68353;SDS011;55274;43.060;25.618;2022-07-31T13:37:09;5.63;;;4.70;;
68353;SDS011;55274;43.060;25.618;2022-07-31T13:39:34;5.18;;;4.30;;
68353;SDS011;55274;43.060;25.618;2022-07-31T13:42:00;6.75;;;4.32;;
68353;SDS011;55274;43.060;25.618;2022-07-31T13:44:26;5.85;;;4.10;;
68353;SDS011;55274;43.060;25.618;2022-07-31T13:46:52;5.80;;;4.40;;
68353;SDS011;55274;43.060;25.618;2022-07-31T13:49:17;5.32;;;4.28;;
68353;SDS011;55274;43.060;25.618;2022-07-31T13:51:43;4.80;;;4.07;;
68353;SDS011;55274;43.060;25.618;2022-07-31T13:54:09;15.50;;;11.57;;
68353;SDS011;55274;43.060;25.618;2022-07-31T13:56:35;6.40;;;4.35;;
68353;SDS011;55274;43.060;25.618;2022-07-31T13:59:03;4.70;;;3.67;;
68353;SDS011;55274;43.060;25.618;2022-07-31T14:01:29;6.07;;;3.67;;
68353;SDS011;55274;43.060;25.618;2022-07-31T14:03:55;3.33;;;3.03;;
68353;SDS011;55274;43.060;25.618;2022-07-31T14:06:21;5.00;;;3.50;;
68353;SDS011;55274;43.060;25.618;2022-07-31T14:08:46;5.28;;;3.75;;
68353;SDS011;55274;43.060;25.618;2022-07-31T14:11:12;5.80;;;3.83;;
68353;SDS011;55274;43.060;25.618;2022-07-31T14:13:38;5.28;;;3.47;;
68353;SDS011;55274;43.060;25.618;2022-07-31T14:16:04;6.90;;;3.78;;
68353;SDS011;55274;43.060;25.618;2022-07-31T14:18:30;4.47;;;4.07;;
68353;SDS011;55274;43.060;25.618;2022-07-31T14:20:56;5.75;;;3.40;;
68353;SDS011;55274;43.060;25.618;2022-07-31T14:23:22;5.78;;;3.35;;
68353;SDS011;55274;43.060;25.618;2022-07-31T14:25:48;5.28;;;3.50;;
68353;SDS011;55274;43.060;25.618;2022-07-31T14:28:14;14.02;;;3.95;;
68353;SDS011;55274;43.060;25.618;2022-07-31T14:30:39;7.18;;;5.50;;
68353;SDS011;55274;43.060;25.618;2022-07-31T14:33:10;5.22;;;3.85;;
68353;SDS011;55274;43.060;25.618;2022-07-31T14:35:38;6.03;;;4.28;;
68353;SDS011;55274;43.060;25.618;2022-07-31T14:38:04;8.73;;;4.45;;
68353;SDS011;55274;43.060;25.618;2022-07-31T14:40:30;7.78;;;4.55;;
68353;SDS011;55274;43.060;25.618;2022-07-31T14:42:56;4.57;;;3.53;;
68353;SDS011;55274;43.060;25.618;2022-07-31T14:45:22;6.63;;;4.65;;
68353;SDS011;55274;43.060;25.618;2022-07-31T14:47:48;5.45;;;4.20;;
68353;SDS011;55274;43.060;25.618;2022-07-31T14:50:14;7.93;;;4.18;;
68353;SDS011;55274;43.060;25.618;2022-07-31T14:52:40;7.30;;;4.15;;
68353;SDS011;55274;43.060;25.618;2022-07-31T14:55:06;8.50;;;5.60;;
68353;SDS011;55274;43.060;25.618;2022-07-31T14:57:33;5.40;;;4.47;;